This is the latest recevied weather packets stored in our database for station/object BMCB-35. If no packets are shown the sender has not sent any weather packets the latest 10 day(s).
| Time | Temp. | Humidity | Pressure | Rain* | Wind** | Luminosity | Snow |
|---|---|---|---|---|---|---|---|
| 1777921808 | 15° C | 71% | 1012.9 hPa | 0 mm | - | 0 W/m² | - |
| 1777920615 | 15° C | 71% | 1012.8 hPa | 0 mm | - | 3 W/m² | - |
| 1777917635 | 15.56° C | 68% | 1012.8 hPa | 0 mm | - | 30 W/m² | - |
| 1777915209 | 15.56° C | 66% | 1012.8 hPa | 0 mm | - | 34 W/m² | - |
| 1777914007 | 15.56° C | 66% | 1013 hPa | 0 mm | - | 54 W/m² | - |
| 1777913409 | 15.56° C | 66% | 1013 hPa | 0 mm | - | 54 W/m² | - |
| 1777912833 | 16.11° C | 67% | 1013.1 hPa | 0 mm | - | 54 W/m² | - |
| 1777910409 | 16.11° C | 69% | 1013.1 hPa | 0 mm | - | 65 W/m² | - |
| 1777909832 | 15.56° C | 67% | 1013.3 hPa | 0 mm | - | 47 W/m² | - |
| 1777909241 | 16.11° C | 67% | 1013.3 hPa | 0 mm | - | 53 W/m² | - |
| 1777908023 | 16.11° C | 67% | 1013.4 hPa | 0 mm | - | 63 W/m² | - |
| 1777906232 | 16.11° C | 68% | 1013.6 hPa | 0 mm | - | 91 W/m² | - |
| 1777903810 | 16.11° C | 70% | 1013.8 hPa | 0 mm | - | 141 W/m² | - |
| 1777903214 | 16.11° C | 69% | 1013.9 hPa | 0 mm | - | 126 W/m² | - |
| 1777902047 | 16.11° C | 66% | 1014 hPa | 0 mm | - | 209 W/m² | - |
| 1777896042 | 15.56° C | 78% | 1014.4 hPa | 0 mm | - | 199 W/m² | - |
| 1777894232 | 15.56° C | 75% | 1014.6 hPa | 0 mm | - | 210 W/m² | - |
| 1777892411 | 15.56° C | 72% | 1014.7 hPa | 0 mm | - | 299 W/m² | - |
| 1777891839 | 15.56° C | 72% | 1014.7 hPa | 0 mm | - | 299 W/m² | - |
| 1777891239 | 16.11° C | 72% | 1014.8 hPa | 0 mm | - | 209 W/m² | - |
| 1777890014 | 16.11° C | 69% | 1014.8 hPa | 0 mm | - | 338 W/m² | - |
| 1777888847 | 16.11° C | 69% | 1014.8 hPa | 0 mm | - | 321 W/m² | - |
| 1777888842 | 16.11° C | 68% | 1014.7 hPa | 0 mm | - | 279 W/m² | - |
| 1777881015 | 13.33° C | 73% | 1014.8 hPa | 0 mm | - | 263 W/m² | - |
| 1777878632 | 11.67° C | 79% | 1014.6 hPa | 0 mm | - | 224 W/m² | - |
* Rain latest hour (hover to see other rain measurements)
** Current wind speed in m/s (hover to see current wind gust speed)